sensor_id;sensor_type;location;lat;lon;timestamp;P1;durP1;ratioP1;P2;durP2;ratioP2
84745;SDS011;74975;51.922;6.480;2024-03-29T00:00:03;4.55;;;1.42;;
84745;SDS011;74975;51.922;6.480;2024-03-29T00:02:29;2.22;;;1.50;;
84745;SDS011;74975;51.922;6.480;2024-03-29T00:05:08;1.95;;;1.50;;
84745;SDS011;74975;51.922;6.480;2024-03-29T00:07:46;5.80;;;1.55;;
84745;SDS011;74975;51.922;6.480;2024-03-29T00:10:25;1.63;;;1.25;;
84745;SDS011;74975;51.922;6.480;2024-03-29T00:12:57;2.92;;;1.30;;
84745;SDS011;74975;51.922;6.480;2024-03-29T00:15:33;1.48;;;1.15;;
84745;SDS011;74975;51.922;6.480;2024-03-29T00:18:08;3.80;;;1.23;;
84745;SDS011;74975;51.922;6.480;2024-03-29T00:20:46;2.60;;;1.25;;
84745;SDS011;74975;51.922;6.480;2024-03-29T00:23:20;2.50;;;1.40;;
84745;SDS011;74975;51.922;6.480;2024-03-29T00:28:29;1.33;;;1.15;;
84745;SDS011;74975;51.922;6.480;2024-03-29T00:31:01;3.28;;;1.90;;
84745;SDS011;74975;51.922;6.480;2024-03-29T00:33:32;5.60;;;2.10;;
84745;SDS011;74975;51.922;6.480;2024-03-29T00:36:10;3.35;;;1.48;;
84745;SDS011;74975;51.922;6.480;2024-03-29T00:38:45;1.27;;;1.15;;
84745;SDS011;74975;51.922;6.480;2024-03-29T00:41:24;3.15;;;1.55;;
84745;SDS011;74975;51.922;6.480;2024-03-29T00:43:57;3.17;;;1.45;;
84745;SDS011;74975;51.922;6.480;2024-03-29T00:46:36;2.88;;;1.58;;
84745;SDS011;74975;51.922;6.480;2024-03-29T00:49:09;3.40;;;1.30;;
84745;SDS011;74975;51.922;6.480;2024-03-29T00:51:40;2.33;;;1.48;;
84745;SDS011;74975;51.922;6.480;2024-03-29T00:54:14;6.05;;;2.00;;
84745;SDS011;74975;51.922;6.480;2024-03-29T00:56:44;1.60;;;1.48;;
84745;SDS011;74975;51.922;6.480;2024-03-29T00:59:16;1.48;;;1.38;;
84745;SDS011;74975;51.922;6.480;2024-03-29T01:01:58;1.13;;;1.10;;
84745;SDS011;74975;51.922;6.480;2024-03-29T01:04:31;2.10;;;1.77;;
84745;SDS011;74975;51.922;6.480;2024-03-29T01:07:03;4.82;;;1.92;;
84745;SDS011;74975;51.922;6.480;2024-03-29T01:09:48;3.17;;;1.20;;
84745;SDS011;74975;51.922;6.480;2024-03-29T01:12:14;3.50;;;1.27;;
84745;SDS011;74975;51.922;6.480;2024-03-29T01:14:53;3.47;;;1.63;;
84745;SDS011;74975;51.922;6.480;2024-03-29T01:17:24;3.22;;;1.52;;
84745;SDS011;74975;51.922;6.480;2024-03-29T01:20:03;3.88;;;1.55;;
84745;SDS011;74975;51.922;6.480;2024-03-29T01:22:35;2.20;;;1.65;;
84745;SDS011;74975;51.922;6.480;2024-03-29T01:25:03;2.58;;;1.42;;
84745;SDS011;74975;51.922;6.480;2024-03-29T01:27:40;2.95;;;1.38;;
84745;SDS011;74975;51.922;6.480;2024-03-29T01:30:16;1.15;;;0.95;;
84745;SDS011;74975;51.922;6.480;2024-03-29T01:32:49;2.92;;;1.67;;
84745;SDS011;74975;51.922;6.480;2024-03-29T01:35:30;3.90;;;1.50;;
84745;SDS011;74975;51.922;6.480;2024-03-29T01:38:02;2.72;;;1.40;;
84745;SDS011;74975;51.922;6.480;2024-03-29T01:40:38;3.85;;;1.33;;
84745;SDS011;74975;51.922;6.480;2024-03-29T01:43:11;1.85;;;1.50;;
84745;SDS011;74975;51.922;6.480;2024-03-29T01:45:47;3.40;;;1.40;;
84745;SDS011;74975;51.922;6.480;2024-03-29T01:48:25;0.93;;;0.93;;
84745;SDS011;74975;51.922;6.480;2024-03-29T01:51:04;2.17;;;1.48;;
84745;SDS011;74975;51.922;6.480;2024-03-29T01:53:38;2.40;;;2.03;;
84745;SDS011;74975;51.922;6.480;2024-03-29T01:56:14;3.22;;;1.40;;
84745;SDS011;74975;51.922;6.480;2024-03-29T01:58:49;2.85;;;1.50;;
84745;SDS011;74975;51.922;6.480;2024-03-29T02:01:25;1.50;;;1.20;;
84745;SDS011;74975;51.922;6.480;2024-03-29T02:04:01;1.85;;;0.85;;
84745;SDS011;74975;51.922;6.480;2024-03-29T02:06:37;1.35;;;1.25;;
84745;SDS011;74975;51.922;6.480;2024-03-29T02:09:04;3.10;;;1.48;;
84745;SDS011;74975;51.922;6.480;2024-03-29T02:11:46;2.30;;;1.27;;
84745;SDS011;74975;51.922;6.480;2024-03-29T02:14:17;3.08;;;1.40;;
84745;SDS011;74975;51.922;6.480;2024-03-29T02:16:57;3.90;;;1.50;;
84745;SDS011;74975;51.922;6.480;2024-03-29T02:19:34;3.85;;;1.60;;
84745;SDS011;74975;51.922;6.480;2024-03-29T02:22:12;1.92;;;1.58;;
84745;SDS011;74975;51.922;6.480;2024-03-29T02:24:47;4.47;;;1.35;;
84745;SDS011;74975;51.922;6.480;2024-03-29T02:27:23;1.75;;;1.20;;
84745;SDS011;74975;51.922;6.480;2024-03-29T02:29:54;0.98;;;0.98;;
84745;SDS011;74975;51.922;6.480;2024-03-29T02:32:32;2.15;;;1.95;;
84745;SDS011;74975;51.922;6.480;2024-03-29T02:35:04;4.07;;;1.48;;
84745;SDS011;74975;51.922;6.480;2024-03-29T02:40:10;4.63;;;1.48;;
84745;SDS011;74975;51.922;6.480;2024-03-29T02:42:39;2.58;;;1.40;;
84745;SDS011;74975;51.922;6.480;2024-03-29T02:45:23;3.97;;;1.50;;
84745;SDS011;74975;51.922;6.480;2024-03-29T02:47:53;5.35;;;1.63;;
84745;SDS011;74975;51.922;6.480;2024-03-29T02:50:32;4.93;;;1.58;;
84745;SDS011;74975;51.922;6.480;2024-03-29T02:53:10;3.30;;;1.30;;
84745;SDS011;74975;51.922;6.480;2024-03-29T02:55:45;2.08;;;1.33;;
84745;SDS011;74975;51.922;6.480;2024-03-29T02:58:29;2.72;;;1.60;;
84745;SDS011;74975;51.922;6.480;2024-03-29T03:00:57;1.83;;;1.42;;
84745;SDS011;74975;51.922;6.480;2024-03-29T03:03:41;2.40;;;1.50;;
84745;SDS011;74975;51.922;6.480;2024-03-29T03:06:13;3.38;;;1.50;;
84745;SDS011;74975;51.922;6.480;2024-03-29T03:08:49;6.13;;;1.98;;
84745;SDS011;74975;51.922;6.480;2024-03-29T03:11:43;3.53;;;1.45;;
84745;SDS011;74975;51.922;6.480;2024-03-29T03:14:18;1.88;;;1.50;;
84745;SDS011;74975;51.922;6.480;2024-03-29T03:16:47;5.53;;;1.73;;
84745;SDS011;74975;51.922;6.480;2024-03-29T03:19:23;2.28;;;1.70;;
84745;SDS011;74975;51.922;6.480;2024-03-29T03:21:58;4.18;;;1.60;;
84745;SDS011;74975;51.922;6.480;2024-03-29T03:24:30;2.83;;;1.83;;
84745;SDS011;74975;51.922;6.480;2024-03-29T03:26:59;1.50;;;1.30;;
84745;SDS011;74975;51.922;6.480;2024-03-29T03:29:36;3.95;;;1.55;;
84745;SDS011;74975;51.922;6.480;2024-03-29T03:32:07;1.98;;;1.48;;
84745;SDS011;74975;51.922;6.480;2024-03-29T03:34:42;4.40;;;1.67;;
84745;SDS011;74975;51.922;6.480;2024-03-29T03:37:17;2.72;;;1.73;;
84745;SDS011;74975;51.922;6.480;2024-03-29T03:39:46;3.08;;;1.60;;
84745;SDS011;74975;51.922;6.480;2024-03-29T03:42:23;3.88;;;2.17;;
84745;SDS011;74975;51.922;6.480;2024-03-29T03:44:57;7.55;;;2.03;;
84745;SDS011;74975;51.922;6.480;2024-03-29T03:47:32;1.65;;;1.48;;
84745;SDS011;74975;51.922;6.480;2024-03-29T03:50:04;2.50;;;1.77;;
84745;SDS011;74975;51.922;6.480;2024-03-29T03:52:37;2.58;;;1.33;;
84745;SDS011;74975;51.922;6.480;2024-03-29T03:55:05;1.63;;;1.10;;
84745;SDS011;74975;51.922;6.480;2024-03-29T03:57:41;2.05;;;1.73;;
84745;SDS011;74975;51.922;6.480;2024-03-29T04:00:16;3.15;;;1.60;;
84745;SDS011;74975;51.922;6.480;2024-03-29T04:02:47;1.20;;;1.10;;
84745;SDS011;74975;51.922;6.480;2024-03-29T04:05:30;6.50;;;2.10;;
84745;SDS011;74975;51.922;6.480;2024-03-29T04:08:06;5.65;;;1.63;;
84745;SDS011;74975;51.922;6.480;2024-03-29T04:10:39;4.75;;;1.48;;
84745;SDS011;74975;51.922;6.480;2024-03-29T04:13:08;2.42;;;1.67;;
84745;SDS011;74975;51.922;6.480;2024-03-29T04:15:36;1.40;;;1.30;;
84745;SDS011;74975;51.922;6.480;2024-03-29T04:18:12;1.98;;;1.77;;
84745;SDS011;74975;51.922;6.480;2024-03-29T04:20:44;3.55;;;1.20;;
84745;SDS011;74975;51.922;6.480;2024-03-29T04:23:18;3.08;;;1.40;;
84745;SDS011;74975;51.922;6.480;2024-03-29T04:26:00;3.05;;;1.70;;
84745;SDS011;74975;51.922;6.480;2024-03-29T04:28:32;1.98;;;1.30;;
84745;SDS011;74975;51.922;6.480;2024-03-29T04:31:10;2.22;;;1.80;;
84745;SDS011;74975;51.922;6.480;2024-03-29T04:33:45;1.88;;;1.42;;
84745;SDS011;74975;51.922;6.480;2024-03-29T04:36:25;2.13;;;1.48;;
84745;SDS011;74975;51.922;6.480;2024-03-29T04:38:58;2.42;;;1.30;;
84745;SDS011;74975;51.922;6.480;2024-03-29T04:41:30;1.90;;;1.40;;
84745;SDS011;74975;51.922;6.480;2024-03-29T04:44:05;3.72;;;1.52;;
84745;SDS011;74975;51.922;6.480;2024-03-29T04:46:38;5.03;;;1.65;;
84745;SDS011;74975;51.922;6.480;2024-03-29T04:49:09;4.50;;;1.08;;
84745;SDS011;74975;51.922;6.480;2024-03-29T04:52:10;2.20;;;1.40;;
84745;SDS011;74975;51.922;6.480;2024-03-29T04:54:48;2.50;;;1.67;;
84745;SDS011;74975;51.922;6.480;2024-03-29T04:57:18;1.90;;;1.48;;
84745;SDS011;74975;51.922;6.480;2024-03-29T04:59:49;1.92;;;1.42;;
84745;SDS011;74975;51.922;6.480;2024-03-29T05:02:29;1.65;;;1.50;;
84745;SDS011;74975;51.922;6.480;2024-03-29T05:05:08;2.10;;;1.30;;
84745;SDS011;74975;51.922;6.480;2024-03-29T05:07:44;2.03;;;1.40;;
84745;SDS011;74975;51.922;6.480;2024-03-29T05:10:18;3.45;;;1.88;;
84745;SDS011;74975;51.922;6.480;2024-03-29T05:12:54;1.63;;;1.20;;
84745;SDS011;74975;51.922;6.480;2024-03-29T05:15:29;2.08;;;1.40;;
84745;SDS011;74975;51.922;6.480;2024-03-29T05:18:04;2.42;;;1.73;;
84745;SDS011;74975;51.922;6.480;2024-03-29T05:20:39;3.47;;;1.58;;
84745;SDS011;74975;51.922;6.480;2024-03-29T05:23:20;1.92;;;1.50;;
84745;SDS011;74975;51.922;6.480;2024-03-29T05:25:56;1.95;;;1.50;;
84745;SDS011;74975;51.922;6.480;2024-03-29T05:28:29;1.85;;;1.45;;
84745;SDS011;74975;51.922;6.480;2024-03-29T05:31:11;2.10;;;1.67;;
84745;SDS011;74975;51.922;6.480;2024-03-29T05:33:46;2.88;;;1.48;;
84745;SDS011;74975;51.922;6.480;2024-03-29T05:36:23;2.60;;;1.70;;
84745;SDS011;74975;51.922;6.480;2024-03-29T05:38:52;1.48;;;1.20;;
84745;SDS011;74975;51.922;6.480;2024-03-29T05:41:28;1.45;;;1.35;;
84745;SDS011;74975;51.922;6.480;2024-03-29T05:43:59;2.72;;;1.88;;
84745;SDS011;74975;51.922;6.480;2024-03-29T05:46:35;2.85;;;2.05;;
84745;SDS011;74975;51.922;6.480;2024-03-29T05:49:07;4.97;;;2.22;;
84745;SDS011;74975;51.922;6.480;2024-03-29T05:51:47;3.88;;;1.90;;
84745;SDS011;74975;51.922;6.480;2024-03-29T05:54:17;2.53;;;2.00;;
84745;SDS011;74975;51.922;6.480;2024-03-29T05:56:52;3.13;;;2.45;;
84745;SDS011;74975;51.922;6.480;2024-03-29T05:59:18;4.10;;;2.17;;
84745;SDS011;74975;51.922;6.480;2024-03-29T06:01:54;2.35;;;1.70;;
84745;SDS011;74975;51.922;6.480;2024-03-29T06:06:57;2.55;;;1.30;;
84745;SDS011;74975;51.922;6.480;2024-03-29T06:09:33;3.28;;;1.88;;
84745;SDS011;74975;51.922;6.480;2024-03-29T06:12:06;2.65;;;1.80;;
84745;SDS011;74975;51.922;6.480;2024-03-29T06:14:42;3.55;;;1.98;;
84745;SDS011;74975;51.922;6.480;2024-03-29T06:17:30;3.88;;;2.85;;
84745;SDS011;74975;51.922;6.480;2024-03-29T06:20:08;3.17;;;2.88;;
84745;SDS011;74975;51.922;6.480;2024-03-29T06:22:43;7.13;;;1.98;;
84745;SDS011;74975;51.922;6.480;2024-03-29T06:25:22;5.97;;;2.50;;
84745;SDS011;74975;51.922;6.480;2024-03-29T06:27:51;4.65;;;2.30;;
84745;SDS011;74975;51.922;6.480;2024-03-29T06:30:29;2.30;;;1.92;;
84745;SDS011;74975;51.922;6.480;2024-03-29T06:33:01;4.60;;;2.45;;
84745;SDS011;74975;51.922;6.480;2024-03-29T06:35:33;3.42;;;1.90;;
84745;SDS011;74975;51.922;6.480;2024-03-29T06:38:06;3.95;;;2.22;;
84745;SDS011;74975;51.922;6.480;2024-03-29T06:40:40;4.10;;;2.80;;
84745;SDS011;74975;51.922;6.480;2024-03-29T06:43:09;4.38;;;2.53;;
84745;SDS011;74975;51.922;6.480;2024-03-29T06:45:51;3.88;;;3.03;;
84745;SDS011;74975;51.922;6.480;2024-03-29T06:48:28;4.88;;;2.70;;
84745;SDS011;74975;51.922;6.480;2024-03-29T06:51:05;3.85;;;2.30;;
84745;SDS011;74975;51.922;6.480;2024-03-29T06:53:37;4.43;;;2.45;;
84745;SDS011;74975;51.922;6.480;2024-03-29T06:56:09;6.40;;;3.10;;
84745;SDS011;74975;51.922;6.480;2024-03-29T06:58:41;2.80;;;2.45;;
84745;SDS011;74975;51.922;6.480;2024-03-29T07:01:16;4.70;;;3.05;;
84745;SDS011;74975;51.922;6.480;2024-03-29T07:03:49;6.63;;;3.13;;
84745;SDS011;74975;51.922;6.480;2024-03-29T07:06:22;6.07;;;2.85;;
84745;SDS011;74975;51.922;6.480;2024-03-29T07:08:58;4.15;;;2.53;;
84745;SDS011;74975;51.922;6.480;2024-03-29T07:11:24;5.35;;;2.78;;
84745;SDS011;74975;51.922;6.480;2024-03-29T07:13:57;7.57;;;2.90;;
84745;SDS011;74975;51.922;6.480;2024-03-29T07:16:29;5.38;;;2.60;;
84745;SDS011;74975;51.922;6.480;2024-03-29T07:19:02;4.35;;;2.83;;
84745;SDS011;74975;51.922;6.480;2024-03-29T07:21:47;4.07;;;3.10;;
84745;SDS011;74975;51.922;6.480;2024-03-29T07:24:25;7.43;;;3.20;;
84745;SDS011;74975;51.922;6.480;2024-03-29T07:26:58;3.22;;;2.33;;
84745;SDS011;74975;51.922;6.480;2024-03-29T07:29:32;5.72;;;3.05;;
84745;SDS011;74975;51.922;6.480;2024-03-29T07:32:05;5.38;;;3.03;;
84745;SDS011;74975;51.922;6.480;2024-03-29T07:34:36;3.85;;;3.10;;
84745;SDS011;74975;51.922;6.480;2024-03-29T07:37:14;6.07;;;2.80;;
84745;SDS011;74975;51.922;6.480;2024-03-29T07:39:47;5.10;;;2.75;;
84745;SDS011;74975;51.922;6.480;2024-03-29T07:42:22;5.72;;;2.30;;
84745;SDS011;74975;51.922;6.480;2024-03-29T07:44:55;5.60;;;2.35;;
84745;SDS011;74975;51.922;6.480;2024-03-29T07:47:28;4.95;;;2.47;;
84745;SDS011;74975;51.922;6.480;2024-03-29T07:49:59;4.85;;;2.13;;
84745;SDS011;74975;51.922;6.480;2024-03-29T07:52:29;5.80;;;2.60;;
84745;SDS011;74975;51.922;6.480;2024-03-29T07:55:07;3.78;;;2.45;;
84745;SDS011;74975;51.922;6.480;2024-03-29T07:57:38;4.55;;;2.25;;
84745;SDS011;74975;51.922;6.480;2024-03-29T08:00:15;4.75;;;2.10;;
84745;SDS011;74975;51.922;6.480;2024-03-29T08:02:45;3.58;;;2.40;;
84745;SDS011;74975;51.922;6.480;2024-03-29T08:05:12;4.47;;;2.50;;
84745;SDS011;74975;51.922;6.480;2024-03-29T08:07:47;3.65;;;2.10;;
84745;SDS011;74975;51.922;6.480;2024-03-29T08:10:16;5.78;;;2.25;;
84745;SDS011;74975;51.922;6.480;2024-03-29T08:12:51;5.80;;;2.08;;
84745;SDS011;74975;51.922;6.480;2024-03-29T08:17:54;3.15;;;2.20;;
84745;SDS011;74975;51.922;6.480;2024-03-29T08:20:28;3.50;;;1.73;;
84745;SDS011;74975;51.922;6.480;2024-03-29T08:23:05;3.83;;;2.05;;
84745;SDS011;74975;51.922;6.480;2024-03-29T08:25:45;3.97;;;2.38;;
84745;SDS011;74975;51.922;6.480;2024-03-29T08:28:14;2.88;;;2.53;;
84745;SDS011;74975;51.922;6.480;2024-03-29T08:31:07;2.83;;;2.22;;
84745;SDS011;74975;51.922;6.480;2024-03-29T08:33:40;3.92;;;2.55;;
84745;SDS011;74975;51.922;6.480;2024-03-29T08:36:14;7.38;;;2.67;;
84745;SDS011;74975;51.922;6.480;2024-03-29T08:38:52;3.95;;;2.47;;
84745;SDS011;74975;51.922;6.480;2024-03-29T08:41:22;3.35;;;2.63;;
84745;SDS011;74975;51.922;6.480;2024-03-29T08:43:49;3.90;;;2.20;;
84745;SDS011;74975;51.922;6.480;2024-03-29T08:46:26;4.78;;;2.35;;
84745;SDS011;74975;51.922;6.480;2024-03-29T08:48:58;4.47;;;2.22;;
84745;SDS011;74975;51.922;6.480;2024-03-29T08:51:37;3.67;;;2.45;;
84745;SDS011;74975;51.922;6.480;2024-03-29T08:54:14;3.72;;;2.28;;
84745;SDS011;74975;51.922;6.480;2024-03-29T08:56:47;4.85;;;2.58;;
84745;SDS011;74975;51.922;6.480;2024-03-29T08:59:22;5.00;;;2.88;;
84745;SDS011;74975;51.922;6.480;2024-03-29T09:01:54;7.28;;;2.67;;
84745;SDS011;74975;51.922;6.480;2024-03-29T09:04:32;3.40;;;2.10;;
84745;SDS011;74975;51.922;6.480;2024-03-29T09:07:03;4.53;;;2.35;;
84745;SDS011;74975;51.922;6.480;2024-03-29T09:09:33;3.45;;;2.50;;
84745;SDS011;74975;51.922;6.480;2024-03-29T09:11:59;4.90;;;2.25;;
84745;SDS011;74975;51.922;6.480;2024-03-29T09:14:27;2.50;;;1.92;;
84745;SDS011;74975;51.922;6.480;2024-03-29T09:16:59;3.05;;;2.08;;
84745;SDS011;74975;51.922;6.480;2024-03-29T09:19:34;2.65;;;1.80;;
84745;SDS011;74975;51.922;6.480;2024-03-29T09:21:59;3.90;;;2.10;;
84745;SDS011;74975;51.922;6.480;2024-03-29T09:24:33;4.68;;;2.08;;
84745;SDS011;74975;51.922;6.480;2024-03-29T09:27:01;2.70;;;2.13;;
84745;SDS011;74975;51.922;6.480;2024-03-29T09:29:35;2.83;;;2.28;;
84745;SDS011;74975;51.922;6.480;2024-03-29T09:32:08;1.77;;;1.67;;
84745;SDS011;74975;51.922;6.480;2024-03-29T09:34:53;6.45;;;2.13;;
84745;SDS011;74975;51.922;6.480;2024-03-29T09:37:18;4.28;;;2.00;;
84745;SDS011;74975;51.922;6.480;2024-03-29T09:39:50;3.28;;;2.05;;
84745;SDS011;74975;51.922;6.480;2024-03-29T09:42:18;2.22;;;1.67;;
84745;SDS011;74975;51.922;6.480;2024-03-29T09:44:55;3.13;;;1.90;;
84745;SDS011;74975;51.922;6.480;2024-03-29T09:47:34;2.30;;;1.90;;
84745;SDS011;74975;51.922;6.480;2024-03-29T09:50:05;4.35;;;2.75;;
84745;SDS011;74975;51.922;6.480;2024-03-29T09:55:11;3.38;;;2.00;;
84745;SDS011;74975;51.922;6.480;2024-03-29T09:57:47;4.85;;;2.53;;
84745;SDS011;74975;51.922;6.480;2024-03-29T10:00:23;2.70;;;2.10;;
84745;SDS011;74975;51.922;6.480;2024-03-29T10:02:55;2.42;;;1.92;;
84745;SDS011;74975;51.922;6.480;2024-03-29T10:05:30;3.53;;;2.03;;
84745;SDS011;74975;51.922;6.480;2024-03-29T10:08:08;1.73;;;1.63;;
84745;SDS011;74975;51.922;6.480;2024-03-29T10:10:44;3.22;;;2.40;;
84745;SDS011;74975;51.922;6.480;2024-03-29T10:13:18;2.90;;;2.10;;
84745;SDS011;74975;51.922;6.480;2024-03-29T10:15:49;3.97;;;2.53;;
84745;SDS011;74975;51.922;6.480;2024-03-29T10:18:26;3.97;;;2.25;;
84745;SDS011;74975;51.922;6.480;2024-03-29T10:21:03;4.28;;;2.28;;
84745;SDS011;74975;51.922;6.480;2024-03-29T10:23:33;2.30;;;2.03;;
84745;SDS011;74975;51.922;6.480;2024-03-29T10:26:00;5.85;;;2.45;;
84745;SDS011;74975;51.922;6.480;2024-03-29T10:28:43;2.80;;;2.05;;
84745;SDS011;74975;51.922;6.480;2024-03-29T10:31:17;4.70;;;2.90;;
84745;SDS011;74975;51.922;6.480;2024-03-29T10:33:48;4.70;;;2.75;;
84745;SDS011;74975;51.922;6.480;2024-03-29T10:36:25;5.05;;;2.60;;
84745;SDS011;74975;51.922;6.480;2024-03-29T10:38:56;3.10;;;2.13;;
84745;SDS011;74975;51.922;6.480;2024-03-29T10:41:30;3.95;;;2.78;;
84745;SDS011;74975;51.922;6.480;2024-03-29T10:44:04;4.13;;;2.45;;
84745;SDS011;74975;51.922;6.480;2024-03-29T10:46:40;3.05;;;2.03;;
84745;SDS011;74975;51.922;6.480;2024-03-29T10:49:12;2.95;;;1.95;;
84745;SDS011;74975;51.922;6.480;2024-03-29T10:51:49;3.83;;;2.05;;
84745;SDS011;74975;51.922;6.480;2024-03-29T10:54:27;4.18;;;2.58;;
84745;SDS011;74975;51.922;6.480;2024-03-29T10:56:59;4.22;;;2.40;;
84745;SDS011;74975;51.922;6.480;2024-03-29T11:02:34;2.47;;;2.00;;
84745;SDS011;74975;51.922;6.480;2024-03-29T11:05:12;3.70;;;2.47;;
84745;SDS011;74975;51.922;6.480;2024-03-29T11:07:51;2.42;;;2.00;;
84745;SDS011;74975;51.922;6.480;2024-03-29T11:10:54;2.58;;;2.17;;
84745;SDS011;74975;51.922;6.480;2024-03-29T11:16:22;3.33;;;2.15;;
84745;SDS011;74975;51.922;6.480;2024-03-29T11:18:50;4.65;;;2.65;;
84745;SDS011;74975;51.922;6.480;2024-03-29T11:21:26;2.70;;;1.90;;
84745;SDS011;74975;51.922;6.480;2024-03-29T11:23:58;3.00;;;2.38;;
84745;SDS011;74975;51.922;6.480;2024-03-29T11:26:35;1.98;;;1.65;;
84745;SDS011;74975;51.922;6.480;2024-03-29T11:29:17;3.13;;;2.00;;
84745;SDS011;74975;51.922;6.480;2024-03-29T11:32:00;2.38;;;1.92;;
84745;SDS011;74975;51.922;6.480;2024-03-29T11:34:42;3.28;;;2.00;;
84745;SDS011;74975;51.922;6.480;2024-03-29T11:37:20;3.85;;;2.13;;
84745;SDS011;74975;51.922;6.480;2024-03-29T11:39:51;2.17;;;1.85;;
84745;SDS011;74975;51.922;6.480;2024-03-29T11:42:36;3.60;;;2.20;;
84745;SDS011;74975;51.922;6.480;2024-03-29T11:45:19;4.40;;;2.10;;
84745;SDS011;74975;51.922;6.480;2024-03-29T11:47:55;2.85;;;2.20;;
84745;SDS011;74975;51.922;6.480;2024-03-29T11:50:42;1.98;;;1.50;;
84745;SDS011;74975;51.922;6.480;2024-03-29T11:53:18;1.85;;;1.67;;
84745;SDS011;74975;51.922;6.480;2024-03-29T11:55:53;2.67;;;1.63;;
84745;SDS011;74975;51.922;6.480;2024-03-29T11:58:29;2.80;;;1.90;;
84745;SDS011;74975;51.922;6.480;2024-03-29T12:01:03;3.72;;;2.00;;
84745;SDS011;74975;51.922;6.480;2024-03-29T12:03:41;2.70;;;2.20;;
84745;SDS011;74975;51.922;6.480;2024-03-29T12:06:15;3.22;;;2.13;;
84745;SDS011;74975;51.922;6.480;2024-03-29T12:08:49;5.00;;;2.05;;
84745;SDS011;74975;51.922;6.480;2024-03-29T12:11:28;2.00;;;1.70;;
84745;SDS011;74975;51.922;6.480;2024-03-29T12:14:00;6.25;;;2.05;;
84745;SDS011;74975;51.922;6.480;2024-03-29T12:16:29;2.92;;;2.00;;
84745;SDS011;74975;51.922;6.480;2024-03-29T12:19:21;2.97;;;2.10;;
84745;SDS011;74975;51.922;6.480;2024-03-29T12:22:01;2.20;;;1.95;;
84745;SDS011;74975;51.922;6.480;2024-03-29T12:27:02;3.28;;;1.85;;
84745;SDS011;74975;51.922;6.480;2024-03-29T12:29:34;2.10;;;1.63;;
84745;SDS011;74975;51.922;6.480;2024-03-29T12:32:11;2.10;;;1.40;;
84745;SDS011;74975;51.922;6.480;2024-03-29T12:34:54;1.83;;;1.42;;
84745;SDS011;74975;51.922;6.480;2024-03-29T12:37:57;3.20;;;1.70;;
84745;SDS011;74975;51.922;6.480;2024-03-29T12:40:34;3.38;;;1.75;;
84745;SDS011;74975;51.922;6.480;2024-03-29T12:43:10;1.83;;;1.50;;
84745;SDS011;74975;51.922;6.480;2024-03-29T12:45:53;1.73;;;1.60;;
84745;SDS011;74975;51.922;6.480;2024-03-29T12:48:30;1.80;;;1.58;;
84745;SDS011;74975;51.922;6.480;2024-03-29T12:51:00;2.15;;;1.60;;
84745;SDS011;74975;51.922;6.480;2024-03-29T12:53:40;2.13;;;1.50;;
84745;SDS011;74975;51.922;6.480;2024-03-29T12:56:11;2.20;;;1.40;;
84745;SDS011;74975;51.922;6.480;2024-03-29T12:58:50;2.70;;;1.52;;
84745;SDS011;74975;51.922;6.480;2024-03-29T13:01:20;2.30;;;1.65;;
84745;SDS011;74975;51.922;6.480;2024-03-29T13:03:52;2.45;;;2.03;;
84745;SDS011;74975;51.922;6.480;2024-03-29T13:06:25;2.72;;;1.35;;
84745;SDS011;74975;51.922;6.480;2024-03-29T13:08:57;2.72;;;1.45;;
84745;SDS011;74975;51.922;6.480;2024-03-29T13:11:31;2.10;;;1.60;;
84745;SDS011;74975;51.922;6.480;2024-03-29T13:14:04;1.58;;;1.42;;
84745;SDS011;74975;51.922;6.480;2024-03-29T13:16:37;2.78;;;1.55;;
84745;SDS011;74975;51.922;6.480;2024-03-29T13:19:07;1.60;;;1.30;;
84745;SDS011;74975;51.922;6.480;2024-03-29T13:21:45;1.38;;;1.20;;
84745;SDS011;74975;51.922;6.480;2024-03-29T13:24:20;1.83;;;1.45;;
84745;SDS011;74975;51.922;6.480;2024-03-29T13:26:57;3.30;;;1.63;;
84745;SDS011;74975;51.922;6.480;2024-03-29T13:29:27;1.58;;;1.30;;
84745;SDS011;74975;51.922;6.480;2024-03-29T13:32:02;1.52;;;1.25;;
84745;SDS011;74975;51.922;6.480;2024-03-29T13:34:38;1.50;;;1.40;;
84745;SDS011;74975;51.922;6.480;2024-03-29T13:37:07;2.45;;;1.67;;
84745;SDS011;74975;51.922;6.480;2024-03-29T13:39:42;1.40;;;1.25;;
84745;SDS011;74975;51.922;6.480;2024-03-29T13:42:13;1.60;;;1.42;;
84745;SDS011;74975;51.922;6.480;2024-03-29T13:44:48;2.58;;;1.60;;
84745;SDS011;74975;51.922;6.480;2024-03-29T13:47:21;2.75;;;1.70;;
84745;SDS011;74975;51.922;6.480;2024-03-29T13:49:59;2.30;;;1.52;;
84745;SDS011;74975;51.922;6.480;2024-03-29T13:52:38;2.13;;;1.75;;
84745;SDS011;74975;51.922;6.480;2024-03-29T13:55:08;1.35;;;1.25;;
84745;SDS011;74975;51.922;6.480;2024-03-29T13:57:34;2.55;;;1.48;;
84745;SDS011;74975;51.922;6.480;2024-03-29T14:00:11;1.55;;;1.38;;
84745;SDS011;74975;51.922;6.480;2024-03-29T14:02:50;2.55;;;1.40;;
84745;SDS011;74975;51.922;6.480;2024-03-29T14:05:27;1.20;;;1.10;;
84745;SDS011;74975;51.922;6.480;2024-03-29T14:08:07;3.67;;;2.13;;
84745;SDS011;74975;51.922;6.480;2024-03-29T14:10:39;1.50;;;1.40;;
84745;SDS011;74975;51.922;6.480;2024-03-29T14:13:18;1.88;;;1.30;;
84745;SDS011;74975;51.922;6.480;2024-03-29T14:15:57;2.33;;;1.48;;
84745;SDS011;74975;51.922;6.480;2024-03-29T14:18:30;1.85;;;1.50;;
84745;SDS011;74975;51.922;6.480;2024-03-29T14:21:07;1.60;;;1.40;;
84745;SDS011;74975;51.922;6.480;2024-03-29T14:23:43;4.22;;;1.33;;
84745;SDS011;74975;51.922;6.480;2024-03-29T14:26:11;2.03;;;1.40;;
84745;SDS011;74975;51.922;6.480;2024-03-29T14:28:51;2.83;;;1.98;;
84745;SDS011;74975;51.922;6.480;2024-03-29T14:33:54;4.00;;;2.58;;
84745;SDS011;74975;51.922;6.480;2024-03-29T14:36:22;4.40;;;2.17;;
84745;SDS011;74975;51.922;6.480;2024-03-29T14:38:57;2.83;;;2.30;;
84745;SDS011;74975;51.922;6.480;2024-03-29T14:41:27;2.97;;;1.88;;
84745;SDS011;74975;51.922;6.480;2024-03-29T14:44:08;3.53;;;2.08;;
84745;SDS011;74975;51.922;6.480;2024-03-29T14:46:49;3.08;;;2.40;;
84745;SDS011;74975;51.922;6.480;2024-03-29T14:49:20;2.67;;;2.45;;
84745;SDS011;74975;51.922;6.480;2024-03-29T14:51:52;2.58;;;1.70;;
84745;SDS011;74975;51.922;6.480;2024-03-29T14:54:22;5.18;;;2.85;;
84745;SDS011;74975;51.922;6.480;2024-03-29T14:56:54;4.20;;;2.83;;
84745;SDS011;74975;51.922;6.480;2024-03-29T14:59:22;4.10;;;2.50;;
84745;SDS011;74975;51.922;6.480;2024-03-29T15:01:48;4.47;;;2.47;;
84745;SDS011;74975;51.922;6.480;2024-03-29T15:04:16;4.90;;;2.63;;
84745;SDS011;74975;51.922;6.480;2024-03-29T15:06:49;6.45;;;2.97;;
84745;SDS011;74975;51.922;6.480;2024-03-29T15:09:24;3.15;;;2.28;;
84745;SDS011;74975;51.922;6.480;2024-03-29T15:11:59;4.60;;;2.67;;
84745;SDS011;74975;51.922;6.480;2024-03-29T15:14:35;3.75;;;2.75;;
84745;SDS011;74975;51.922;6.480;2024-03-29T15:17:11;4.38;;;2.65;;
84745;SDS011;74975;51.922;6.480;2024-03-29T15:19:36;3.20;;;2.30;;
84745;SDS011;74975;51.922;6.480;2024-03-29T15:22:02;4.22;;;2.13;;
84745;SDS011;74975;51.922;6.480;2024-03-29T15:24:33;5.72;;;2.00;;
84745;SDS011;74975;51.922;6.480;2024-03-29T15:27:01;3.20;;;2.30;;
84745;SDS011;74975;51.922;6.480;2024-03-29T15:29:37;4.30;;;3.03;;
84745;SDS011;74975;51.922;6.480;2024-03-29T15:32:12;6.95;;;3.67;;
84745;SDS011;74975;51.922;6.480;2024-03-29T15:34:38;6.13;;;2.78;;
84745;SDS011;74975;51.922;6.480;2024-03-29T15:37:12;5.00;;;3.00;;
84745;SDS011;74975;51.922;6.480;2024-03-29T15:39:45;3.00;;;2.20;;
84745;SDS011;74975;51.922;6.480;2024-03-29T15:42:15;4.82;;;2.25;;
84745;SDS011;74975;51.922;6.480;2024-03-29T15:44:48;4.80;;;2.63;;
84745;SDS011;74975;51.922;6.480;2024-03-29T15:47:16;6.28;;;2.70;;
84745;SDS011;74975;51.922;6.480;2024-03-29T15:49:47;4.75;;;2.72;;
84745;SDS011;74975;51.922;6.480;2024-03-29T15:52:16;4.05;;;2.38;;
84745;SDS011;74975;51.922;6.480;2024-03-29T15:54:44;3.15;;;2.33;;